Combs, Arkansas
Current Conditions -  °F | °C
As of 3:20 AM on Wednesday 22 Oct 2014 (Local Time) from KFYV Reporting Station
Haze Haze  
Wind Chill: 47°   Ceiling: 200
Heat Index: 47°   Visibility: 3mi
Dew Point: 47°   Wind: 0mph
Humidity: 100%   Direction: NA
Pressure: 30.14"   Gusts: NA
Location:  35.83°N, 93.84°W
Report Text: KFYV 220820Z 00000KT 3SM BR BKN002 08/08 A3014 RMK AO2 T00830083
Loading
Personal Weather Stations






























Interactive Weather Map
Tropical Storm Tracking
New forecast layout! Learn more

10-Day Weather Forecast

Advertisements
Track Severe Weather on mobile